sensor_id;sensor_type;location;lat;lon;timestamp;temperature;humidity
530;DHT22;251;48.704;9.210;2024-02-21T00:00:52;4.20;68.00
530;DHT22;251;48.704;9.210;2024-02-21T00:03:19;4.20;68.10
530;DHT22;251;48.704;9.210;2024-02-21T00:05:46;4.30;63.50
530;DHT22;251;48.704;9.210;2024-02-21T00:08:13;4.30;64.60
530;DHT22;251;48.704;9.210;2024-02-21T00:10:40;4.30;64.50
530;DHT22;251;48.704;9.210;2024-02-21T00:13:07;4.30;65.60
530;DHT22;251;48.704;9.210;2024-02-21T00:15:33;4.30;66.60
530;DHT22;251;48.704;9.210;2024-02-21T00:18:02;4.30;67.30
530;DHT22;251;48.704;9.210;2024-02-21T00:20:28;4.30;67.70
530;DHT22;251;48.704;9.210;2024-02-21T00:22:56;4.30;66.30
530;DHT22;251;48.704;9.210;2024-02-21T00:25:23;4.40;69.00
530;DHT22;251;48.704;9.210;2024-02-21T00:27:49;4.40;67.10
530;DHT22;251;48.704;9.210;2024-02-21T00:30:16;4.40;66.40
530;DHT22;251;48.704;9.210;2024-02-21T00:32:43;4.40;69.00
530;DHT22;251;48.704;9.210;2024-02-21T00:35:11;4.40;68.50
530;DHT22;251;48.704;9.210;2024-02-21T00:37:38;4.40;68.50
530;DHT22;251;48.704;9.210;2024-02-21T00:40:05;4.40;69.60
530;DHT22;251;48.704;9.210;2024-02-21T00:42:32;4.40;69.80
530;DHT22;251;48.704;9.210;2024-02-21T00:44:59;4.40;70.00
530;DHT22;251;48.704;9.210;2024-02-21T00:47:26;4.40;71.00
530;DHT22;251;48.704;9.210;2024-02-21T00:49:55;4.40;69.70
530;DHT22;251;48.704;9.210;2024-02-21T00:52:23;4.50;68.70
530;DHT22;251;48.704;9.210;2024-02-21T00:54:50;4.50;69.00
530;DHT22;251;48.704;9.210;2024-02-21T00:57:17;4.50;69.00
530;DHT22;251;48.704;9.210;2024-02-21T00:59:43;4.50;67.60
530;DHT22;251;48.704;9.210;2024-02-21T01:02:10;4.50;67.20
530;DHT22;251;48.704;9.210;2024-02-21T01:04:37;4.50;68.40
530;DHT22;251;48.704;9.210;2024-02-21T01:07:04;4.50;69.60
530;DHT22;251;48.704;9.210;2024-02-21T01:09:32;4.50;68.40
530;DHT22;251;48.704;9.210;2024-02-21T01:11:59;4.50;68.10
530;DHT22;251;48.704;9.210;2024-02-21T01:14:26;4.50;67.20
530;DHT22;251;48.704;9.210;2024-02-21T01:16:53;4.50;66.50
530;DHT22;251;48.704;9.210;2024-02-21T01:19:20;4.60;68.20
530;DHT22;251;48.704;9.210;2024-02-21T01:21:46;4.60;67.70
530;DHT22;251;48.704;9.210;2024-02-21T01:24:13;4.60;68.00
530;DHT22;251;48.704;9.210;2024-02-21T01:26:42;4.60;67.60
530;DHT22;251;48.704;9.210;2024-02-21T01:29:08;4.60;67.00
530;DHT22;251;48.704;9.210;2024-02-21T01:31:35;4.60;65.90
530;DHT22;251;48.704;9.210;2024-02-21T01:34:02;4.60;65.80
530;DHT22;251;48.704;9.210;2024-02-21T01:36:28;4.60;65.60
530;DHT22;251;48.704;9.210;2024-02-21T01:38:55;4.60;66.40
530;DHT22;251;48.704;9.210;2024-02-21T01:41:22;4.60;65.90
530;DHT22;251;48.704;9.210;2024-02-21T01:43:50;4.60;66.80
530;DHT22;251;48.704;9.210;2024-02-21T01:46:17;4.50;68.10
530;DHT22;251;48.704;9.210;2024-02-21T01:48:44;4.50;68.00
530;DHT22;251;48.704;9.210;2024-02-21T01:51:12;4.50;67.30
530;DHT22;251;48.704;9.210;2024-02-21T01:53:43;4.60;64.30
530;DHT22;251;48.704;9.210;2024-02-21T01:56:10;4.60;63.10
530;DHT22;251;48.704;9.210;2024-02-21T01:58:39;4.70;64.20
530;DHT22;251;48.704;9.210;2024-02-21T02:01:08;4.70;61.90
530;DHT22;251;48.704;9.210;2024-02-21T02:03:36;4.80;59.80
530;DHT22;251;48.704;9.210;2024-02-21T02:06:05;4.80;57.20
530;DHT22;251;48.704;9.210;2024-02-21T02:08:32;4.90;53.70
530;DHT22;251;48.704;9.210;2024-02-21T02:10:59;4.90;49.80
530;DHT22;251;48.704;9.210;2024-02-21T02:13:26;5.00;48.60
530;DHT22;251;48.704;9.210;2024-02-21T02:15:53;5.10;45.90
530;DHT22;251;48.704;9.210;2024-02-21T02:18:21;5.10;44.80
530;DHT22;251;48.704;9.210;2024-02-21T02:20:48;5.20;43.70
530;DHT22;251;48.704;9.210;2024-02-21T02:23:23;5.20;41.90
530;DHT22;251;48.704;9.210;2024-02-21T02:25:50;5.20;43.50
530;DHT22;251;48.704;9.210;2024-02-21T02:28:18;5.30;42.30
530;DHT22;251;48.704;9.210;2024-02-21T02:30:45;5.30;40.80
530;DHT22;251;48.704;9.210;2024-02-21T02:33:12;5.30;40.70
530;DHT22;251;48.704;9.210;2024-02-21T02:35:39;5.30;40.60
530;DHT22;251;48.704;9.210;2024-02-21T02:38:06;5.40;41.00
530;DHT22;251;48.704;9.210;2024-02-21T02:40:35;5.40;42.10
530;DHT22;251;48.704;9.210;2024-02-21T02:43:02;5.40;42.90
530;DHT22;251;48.704;9.210;2024-02-21T02:45:29;5.40;42.00
530;DHT22;251;48.704;9.210;2024-02-21T02:47:56;5.40;41.20
530;DHT22;251;48.704;9.210;2024-02-21T02:50:23;5.40;38.00
530;DHT22;251;48.704;9.210;2024-02-21T02:52:50;5.50;37.50
530;DHT22;251;48.704;9.210;2024-02-21T02:55:17;5.50;36.00
530;DHT22;251;48.704;9.210;2024-02-21T02:57:45;5.60;36.30
530;DHT22;251;48.704;9.210;2024-02-21T03:00:13;5.60;34.90
530;DHT22;251;48.704;9.210;2024-02-21T03:02:42;5.60;36.30
530;DHT22;251;48.704;9.210;2024-02-21T03:05:14;5.70;36.60
530;DHT22;251;48.704;9.210;2024-02-21T03:07:41;5.60;37.90
530;DHT22;251;48.704;9.210;2024-02-21T03:10:09;5.70;38.80
530;DHT22;251;48.704;9.210;2024-02-21T03:12:36;5.60;39.50
530;DHT22;251;48.704;9.210;2024-02-21T03:15:05;5.70;42.50
530;DHT22;251;48.704;9.210;2024-02-21T03:17:32;5.60;44.00
530;DHT22;251;48.704;9.210;2024-02-21T03:20:00;5.60;44.20
530;DHT22;251;48.704;9.210;2024-02-21T03:22:30;5.60;47.10
530;DHT22;251;48.704;9.210;2024-02-21T03:24:56;5.60;48.40
530;DHT22;251;48.704;9.210;2024-02-21T03:27:23;5.60;47.90
530;DHT22;251;48.704;9.210;2024-02-21T03:29:50;5.60;49.40
530;DHT22;251;48.704;9.210;2024-02-21T03:32:18;5.50;51.10
530;DHT22;251;48.704;9.210;2024-02-21T03:34:45;5.50;54.60
530;DHT22;251;48.704;9.210;2024-02-21T03:37:11;5.50;52.60
530;DHT22;251;48.704;9.210;2024-02-21T03:39:39;5.50;50.50
530;DHT22;251;48.704;9.210;2024-02-21T03:42:06;5.50;50.10
530;DHT22;251;48.704;9.210;2024-02-21T03:44:33;5.50;50.20
530;DHT22;251;48.704;9.210;2024-02-21T03:47:00;5.50;50.30
530;DHT22;251;48.704;9.210;2024-02-21T03:49:28;5.40;51.40
530;DHT22;251;48.704;9.210;2024-02-21T03:51:55;5.40;52.10
530;DHT22;251;48.704;9.210;2024-02-21T03:54:22;5.30;53.10
530;DHT22;251;48.704;9.210;2024-02-21T03:56:49;5.30;53.90
530;DHT22;251;48.704;9.210;2024-02-21T03:59:16;5.30;52.40
530;DHT22;251;48.704;9.210;2024-02-21T04:01:42;5.20;50.10
530;DHT22;251;48.704;9.210;2024-02-21T04:04:09;5.20;52.30
530;DHT22;251;48.704;9.210;2024-02-21T04:06:46;5.20;54.40
530;DHT22;251;48.704;9.210;2024-02-21T04:09:12;5.20;56.70
530;DHT22;251;48.704;9.210;2024-02-21T04:11:39;5.10;58.60
530;DHT22;251;48.704;9.210;2024-02-21T04:14:06;5.10;57.90
530;DHT22;251;48.704;9.210;2024-02-21T04:16:33;5.10;56.20
530;DHT22;251;48.704;9.210;2024-02-21T04:19:00;5.10;56.90
530;DHT22;251;48.704;9.210;2024-02-21T04:21:27;5.00;59.30
530;DHT22;251;48.704;9.210;2024-02-21T04:23:55;5.00;60.10
530;DHT22;251;48.704;9.210;2024-02-21T04:26:22;5.00;60.90
530;DHT22;251;48.704;9.210;2024-02-21T04:28:49;4.90;62.00
530;DHT22;251;48.704;9.210;2024-02-21T04:31:15;4.90;62.10
530;DHT22;251;48.704;9.210;2024-02-21T04:33:42;4.80;62.30
530;DHT22;251;48.704;9.210;2024-02-21T04:36:09;4.80;64.30
530;DHT22;251;48.704;9.210;2024-02-21T04:38:36;4.70;65.00
530;DHT22;251;48.704;9.210;2024-02-21T04:41:05;4.70;67.50
530;DHT22;251;48.704;9.210;2024-02-21T04:43:33;4.60;69.50
530;DHT22;251;48.704;9.210;2024-02-21T04:46:00;4.60;70.30
530;DHT22;251;48.704;9.210;2024-02-21T04:48:27;4.60;70.40
530;DHT22;251;48.704;9.210;2024-02-21T04:50:54;4.50;70.50
530;DHT22;251;48.704;9.210;2024-02-21T04:53:20;4.50;72.20
530;DHT22;251;48.704;9.210;2024-02-21T04:55:47;4.50;74.50
530;DHT22;251;48.704;9.210;2024-02-21T04:58:15;4.40;73.10
530;DHT22;251;48.704;9.210;2024-02-21T05:00:42;4.40;70.20
530;DHT22;251;48.704;9.210;2024-02-21T05:03:09;4.30;66.80
530;DHT22;251;48.704;9.210;2024-02-21T05:05:36;4.30;67.20
530;DHT22;251;48.704;9.210;2024-02-21T05:08:04;4.30;68.60
530;DHT22;251;48.704;9.210;2024-02-21T05:10:30;4.20;69.50
530;DHT22;251;48.704;9.210;2024-02-21T05:12:57;4.10;66.50
530;DHT22;251;48.704;9.210;2024-02-21T05:15:25;4.00;66.40
530;DHT22;251;48.704;9.210;2024-02-21T05:17:52;4.00;68.50
530;DHT22;251;48.704;9.210;2024-02-21T05:20:19;3.90;71.70
530;DHT22;251;48.704;9.210;2024-02-21T05:22:46;3.80;74.50
530;DHT22;251;48.704;9.210;2024-02-21T05:25:13;3.70;75.00
530;DHT22;251;48.704;9.210;2024-02-21T05:27:39;3.60;75.60
530;DHT22;251;48.704;9.210;2024-02-21T05:30:07;3.60;77.80
530;DHT22;251;48.704;9.210;2024-02-21T05:32:35;3.50;78.00
530;DHT22;251;48.704;9.210;2024-02-21T05:35:02;3.50;80.60
530;DHT22;251;48.704;9.210;2024-02-21T05:37:29;3.40;82.60
530;DHT22;251;48.704;9.210;2024-02-21T05:39:55;3.40;83.10
530;DHT22;251;48.704;9.210;2024-02-21T05:42:22;3.30;84.80
530;DHT22;251;48.704;9.210;2024-02-21T05:44:49;3.30;86.20
530;DHT22;251;48.704;9.210;2024-02-21T05:47:16;3.30;88.10
530;DHT22;251;48.704;9.210;2024-02-21T05:49:44;3.30;90.00
530;DHT22;251;48.704;9.210;2024-02-21T05:52:10;3.30;90.30
530;DHT22;251;48.704;9.210;2024-02-21T05:54:38;3.30;89.80
530;DHT22;251;48.704;9.210;2024-02-21T05:57:05;3.30;89.80
530;DHT22;251;48.704;9.210;2024-02-21T05:59:32;3.30;87.70
530;DHT22;251;48.704;9.210;2024-02-21T06:02:00;3.30;87.40
530;DHT22;251;48.704;9.210;2024-02-21T06:04:29;3.30;89.20
530;DHT22;251;48.704;9.210;2024-02-21T06:06:57;3.20;88.20
530;DHT22;251;48.704;9.210;2024-02-21T06:09:24;3.20;88.40
530;DHT22;251;48.704;9.210;2024-02-21T06:11:50;3.20;88.70
530;DHT22;251;48.704;9.210;2024-02-21T06:14:17;3.10;89.60
530;DHT22;251;48.704;9.210;2024-02-21T06:16:44;3.10;88.00
530;DHT22;251;48.704;9.210;2024-02-21T06:19:11;3.00;88.00
530;DHT22;251;48.704;9.210;2024-02-21T06:21:37;3.00;88.00
530;DHT22;251;48.704;9.210;2024-02-21T06:24:06;3.00;87.80
530;DHT22;251;48.704;9.210;2024-02-21T06:26:33;2.90;85.90
530;DHT22;251;48.704;9.210;2024-02-21T06:28:59;2.80;85.90
530;DHT22;251;48.704;9.210;2024-02-21T06:31:27;2.80;87.90
530;DHT22;251;48.704;9.210;2024-02-21T06:33:54;2.80;87.10
530;DHT22;251;48.704;9.210;2024-02-21T06:36:21;2.80;86.60
530;DHT22;251;48.704;9.210;2024-02-21T06:38:48;2.80;86.30
530;DHT22;251;48.704;9.210;2024-02-21T06:41:17;2.80;89.20
530;DHT22;251;48.704;9.210;2024-02-21T06:43:44;2.80;89.40
530;DHT22;251;48.704;9.210;2024-02-21T06:46:11;2.80;89.50
530;DHT22;251;48.704;9.210;2024-02-21T06:48:38;2.80;87.10
530;DHT22;251;48.704;9.210;2024-02-21T06:51:05;2.80;89.40
530;DHT22;251;48.704;9.210;2024-02-21T06:53:32;2.90;90.60
530;DHT22;251;48.704;9.210;2024-02-21T06:55:58;2.90;91.10
530;DHT22;251;48.704;9.210;2024-02-21T06:58:26;2.90;92.20
530;DHT22;251;48.704;9.210;2024-02-21T07:00:53;3.00;92.10
530;DHT22;251;48.704;9.210;2024-02-21T07:03:20;3.00;90.80
530;DHT22;251;48.704;9.210;2024-02-21T07:05:47;3.00;86.60
530;DHT22;251;48.704;9.210;2024-02-21T07:08:13;3.10;85.60
530;DHT22;251;48.704;9.210;2024-02-21T07:10:40;3.10;83.90
530;DHT22;251;48.704;9.210;2024-02-21T07:13:07;3.20;83.70
530;DHT22;251;48.704;9.210;2024-02-21T07:15:35;3.20;82.70
530;DHT22;251;48.704;9.210;2024-02-21T07:18:03;3.30;80.40
530;DHT22;251;48.704;9.210;2024-02-21T07:20:30;3.30;80.30
530;DHT22;251;48.704;9.210;2024-02-21T07:22:59;3.40;79.90
530;DHT22;251;48.704;9.210;2024-02-21T07:25:25;3.50;79.50
530;DHT22;251;48.704;9.210;2024-02-21T07:27:52;3.60;77.70
530;DHT22;251;48.704;9.210;2024-02-21T07:30:19;3.60;77.20
530;DHT22;251;48.704;9.210;2024-02-21T07:32:49;3.80;77.20
530;DHT22;251;48.704;9.210;2024-02-21T07:35:15;3.90;76.70
530;DHT22;251;48.704;9.210;2024-02-21T07:37:42;4.00;75.80
530;DHT22;251;48.704;9.210;2024-02-21T07:40:13;4.10;74.30
530;DHT22;251;48.704;9.210;2024-02-21T07:42:39;4.20;70.60
530;DHT22;251;48.704;9.210;2024-02-21T07:45:07;4.40;67.50
530;DHT22;251;48.704;9.210;2024-02-21T07:47:34;4.60;62.10
530;DHT22;251;48.704;9.210;2024-02-21T07:50:03;4.70;61.50
530;DHT22;251;48.704;9.210;2024-02-21T07:52:30;4.80;57.50
530;DHT22;251;48.704;9.210;2024-02-21T07:54:57;5.00;56.80
530;DHT22;251;48.704;9.210;2024-02-21T07:57:23;5.20;48.90
530;DHT22;251;48.704;9.210;2024-02-21T07:59:50;5.30;48.50
530;DHT22;251;48.704;9.210;2024-02-21T08:02:17;5.50;45.90
530;DHT22;251;48.704;9.210;2024-02-21T08:04:44;5.60;41.70
530;DHT22;251;48.704;9.210;2024-02-21T08:07:12;5.80;40.10
530;DHT22;251;48.704;9.210;2024-02-21T08:09:39;5.90;36.00
530;DHT22;251;48.704;9.210;2024-02-21T08:12:06;6.10;35.20
530;DHT22;251;48.704;9.210;2024-02-21T08:14:33;6.20;33.10
530;DHT22;251;48.704;9.210;2024-02-21T08:17:00;6.30;32.40
530;DHT22;251;48.704;9.210;2024-02-21T08:19:27;6.40;31.70
530;DHT22;251;48.704;9.210;2024-02-21T08:21:54;6.50;31.10
530;DHT22;251;48.704;9.210;2024-02-21T08:24:22;6.60;30.00
530;DHT22;251;48.704;9.210;2024-02-21T08:26:49;6.70;29.40
530;DHT22;251;48.704;9.210;2024-02-21T08:29:15;6.80;28.80
530;DHT22;251;48.704;9.210;2024-02-21T08:31:42;6.90;28.50
530;DHT22;251;48.704;9.210;2024-02-21T08:34:09;7.00;28.60
530;DHT22;251;48.704;9.210;2024-02-21T08:36:36;7.10;27.40
530;DHT22;251;48.704;9.210;2024-02-21T08:39:03;7.20;26.60
530;DHT22;251;48.704;9.210;2024-02-21T08:41:32;7.30;26.10
530;DHT22;251;48.704;9.210;2024-02-21T08:44:00;7.30;24.90
530;DHT22;251;48.704;9.210;2024-02-21T08:46:27;7.40;24.60
530;DHT22;251;48.704;9.210;2024-02-21T08:48:54;7.50;25.80
530;DHT22;251;48.704;9.210;2024-02-21T08:51:21;7.70;25.30
530;DHT22;251;48.704;9.210;2024-02-21T08:53:48;7.80;24.70
530;DHT22;251;48.704;9.210;2024-02-21T08:56:15;7.90;24.00
530;DHT22;251;48.704;9.210;2024-02-21T08:58:45;8.00;23.90
530;DHT22;251;48.704;9.210;2024-02-21T09:01:12;8.00;22.70
530;DHT22;251;48.704;9.210;2024-02-21T09:03:40;8.10;23.70
530;DHT22;251;48.704;9.210;2024-02-21T09:06:09;8.20;22.30
530;DHT22;251;48.704;9.210;2024-02-21T09:08:38;8.20;21.80
530;DHT22;251;48.704;9.210;2024-02-21T09:11:06;8.30;21.80
530;DHT22;251;48.704;9.210;2024-02-21T09:13:33;8.40;22.30
530;DHT22;251;48.704;9.210;2024-02-21T09:16:01;8.40;20.40
530;DHT22;251;48.704;9.210;2024-02-21T09:18:28;8.50;20.20
530;DHT22;251;48.704;9.210;2024-02-21T09:20:54;8.60;20.10
530;DHT22;251;48.704;9.210;2024-02-21T09:23:24;8.60;19.60
530;DHT22;251;48.704;9.210;2024-02-21T09:25:51;8.70;19.20
530;DHT22;251;48.704;9.210;2024-02-21T09:28:18;8.70;19.60
530;DHT22;251;48.704;9.210;2024-02-21T09:30:46;8.80;20.30
530;DHT22;251;48.704;9.210;2024-02-21T09:33:14;8.80;19.30
530;DHT22;251;48.704;9.210;2024-02-21T09:35:40;8.90;18.90
530;DHT22;251;48.704;9.210;2024-02-21T09:38:07;8.90;17.80
530;DHT22;251;48.704;9.210;2024-02-21T09:40:34;8.90;17.20
530;DHT22;251;48.704;9.210;2024-02-21T09:43:04;8.90;17.40
530;DHT22;251;48.704;9.210;2024-02-21T09:45:33;8.90;16.30
530;DHT22;251;48.704;9.210;2024-02-21T09:48:19;8.90;17.30
530;DHT22;251;48.704;9.210;2024-02-21T09:50:50;9.00;17.20
530;DHT22;251;48.704;9.210;2024-02-21T09:53:18;9.10;17.30
530;DHT22;251;48.704;9.210;2024-02-21T09:55:46;9.10;16.40
530;DHT22;251;48.704;9.210;2024-02-21T09:58:14;9.20;15.60
530;DHT22;251;48.704;9.210;2024-02-21T10:00:41;9.20;15.40
530;DHT22;251;48.704;9.210;2024-02-21T10:03:07;9.30;15.20
530;DHT22;251;48.704;9.210;2024-02-21T10:05:37;9.40;15.90
530;DHT22;251;48.704;9.210;2024-02-21T10:08:05;9.50;16.00
530;DHT22;251;48.704;9.210;2024-02-21T10:10:41;9.70;15.60
530;DHT22;251;48.704;9.210;2024-02-21T10:13:09;9.80;14.10
530;DHT22;251;48.704;9.210;2024-02-21T10:15:36;9.90;13.80
530;DHT22;251;48.704;9.210;2024-02-21T10:18:04;10.00;13.30
530;DHT22;251;48.704;9.210;2024-02-21T10:20:32;10.00;11.90
530;DHT22;251;48.704;9.210;2024-02-21T10:23:04;10.10;11.80
530;DHT22;251;48.704;9.210;2024-02-21T10:25:35;10.10;11.10
530;DHT22;251;48.704;9.210;2024-02-21T10:28:04;10.20;11.50
530;DHT22;251;48.704;9.210;2024-02-21T10:30:31;10.20;10.90
530;DHT22;251;48.704;9.210;2024-02-21T10:32:57;10.30;10.20
530;DHT22;251;48.704;9.210;2024-02-21T10:35:28;10.40;9.80
530;DHT22;251;48.704;9.210;2024-02-21T10:37:56;10.50;10.00
530;DHT22;251;48.704;9.210;2024-02-21T10:40:26;10.60;9.70
530;DHT22;251;48.704;9.210;2024-02-21T10:42:56;10.70;8.40
530;DHT22;251;48.704;9.210;2024-02-21T10:45:29;10.90;8.60
530;DHT22;251;48.704;9.210;2024-02-21T10:47:59;11.00;8.90
530;DHT22;251;48.704;9.210;2024-02-21T10:50:29;11.20;7.40
530;DHT22;251;48.704;9.210;2024-02-21T10:53:07;11.20;7.00
530;DHT22;251;48.704;9.210;2024-02-21T10:55:43;11.30;8.30
530;DHT22;251;48.704;9.210;2024-02-21T10:58:14;11.40;7.90
530;DHT22;251;48.704;9.210;2024-02-21T11:00:41;11.50;6.20
530;DHT22;251;48.704;9.210;2024-02-21T11:03:09;11.60;6.40
530;DHT22;251;48.704;9.210;2024-02-21T11:05:36;11.60;6.50
530;DHT22;251;48.704;9.210;2024-02-21T11:08:06;11.70;5.60
530;DHT22;251;48.704;9.210;2024-02-21T11:10:38;11.70;5.80
530;DHT22;251;48.704;9.210;2024-02-21T11:13:07;11.80;7.20
530;DHT22;251;48.704;9.210;2024-02-21T11:15:34;11.90;6.40
530;DHT22;251;48.704;9.210;2024-02-21T11:18:01;12.10;5.70
530;DHT22;251;48.704;9.210;2024-02-21T11:20:34;12.10;4.50
530;DHT22;251;48.704;9.210;2024-02-21T11:23:01;12.20;5.70
530;DHT22;251;48.704;9.210;2024-02-21T11:25:28;12.30;6.00
530;DHT22;251;48.704;9.210;2024-02-21T11:28:02;12.40;4.30
530;DHT22;251;48.704;9.210;2024-02-21T11:30:30;12.50;3.10
530;DHT22;251;48.704;9.210;2024-02-21T11:33:02;12.40;3.00
530;DHT22;251;48.704;9.210;2024-02-21T11:35:33;12.50;3.00
530;DHT22;251;48.704;9.210;2024-02-21T11:38:10;12.50;1.80
530;DHT22;251;48.704;9.210;2024-02-21T11:40:41;12.60;1.40
530;DHT22;251;48.704;9.210;2024-02-21T11:43:09;12.70;1.70
530;DHT22;251;48.704;9.210;2024-02-21T11:45:36;12.80;1.00
530;DHT22;251;48.704;9.210;2024-02-21T11:48:06;12.80;1.10
530;DHT22;251;48.704;9.210;2024-02-21T11:50:34;13.00;1.20
530;DHT22;251;48.704;9.210;2024-02-21T11:53:00;13.10;1.00
530;DHT22;251;48.704;9.210;2024-02-21T11:55:28;13.10;1.00
530;DHT22;251;48.704;9.210;2024-02-21T11:57:55;13.10;1.00
530;DHT22;251;48.704;9.210;2024-02-21T12:00:25;13.10;1.00
530;DHT22;251;48.704;9.210;2024-02-21T12:02:52;13.10;1.00
530;DHT22;251;48.704;9.210;2024-02-21T12:05:21;13.00;1.00
530;DHT22;251;48.704;9.210;2024-02-21T12:07:49;13.00;1.00
530;DHT22;251;48.704;9.210;2024-02-21T12:10:15;13.00;1.30
530;DHT22;251;48.704;9.210;2024-02-21T12:12:42;13.00;1.00
530;DHT22;251;48.704;9.210;2024-02-21T12:15:09;13.00;1.00
530;DHT22;251;48.704;9.210;2024-02-21T12:17:38;13.10;1.00
530;DHT22;251;48.704;9.210;2024-02-21T12:20:07;13.10;1.00
530;DHT22;251;48.704;9.210;2024-02-21T12:22:35;13.20;1.00
530;DHT22;251;48.704;9.210;2024-02-21T12:25:03;13.30;1.00
530;DHT22;251;48.704;9.210;2024-02-21T12:27:33;13.40;1.00
530;DHT22;251;48.704;9.210;2024-02-21T12:30:00;13.50;1.00
530;DHT22;251;48.704;9.210;2024-02-21T12:32:27;13.60;1.00
530;DHT22;251;48.704;9.210;2024-02-21T12:34:55;13.70;1.00
530;DHT22;251;48.704;9.210;2024-02-21T12:37:22;13.80;1.00
530;DHT22;251;48.704;9.210;2024-02-21T12:39:50;13.90;1.00
530;DHT22;251;48.704;9.210;2024-02-21T12:42:17;14.00;1.00
530;DHT22;251;48.704;9.210;2024-02-21T12:44:44;13.90;1.00
530;DHT22;251;48.704;9.210;2024-02-21T12:47:11;14.00;1.00
530;DHT22;251;48.704;9.210;2024-02-21T12:49:38;14.10;1.00
530;DHT22;251;48.704;9.210;2024-02-21T12:52:06;14.10;1.00
530;DHT22;251;48.704;9.210;2024-02-21T12:54:33;14.20;1.00
530;DHT22;251;48.704;9.210;2024-02-21T12:57:00;14.20;1.00
530;DHT22;251;48.704;9.210;2024-02-21T12:59:28;14.20;1.00
530;DHT22;251;48.704;9.210;2024-02-21T13:01:55;14.20;1.00
530;DHT22;251;48.704;9.210;2024-02-21T13:04:22;14.20;1.00
530;DHT22;251;48.704;9.210;2024-02-21T13:06:49;14.30;1.00
530;DHT22;251;48.704;9.210;2024-02-21T13:09:17;14.20;1.00
530;DHT22;251;48.704;9.210;2024-02-21T13:11:45;14.10;1.00
530;DHT22;251;48.704;9.210;2024-02-21T13:14:12;14.10;1.00
530;DHT22;251;48.704;9.210;2024-02-21T13:16:39;14.00;1.00
530;DHT22;251;48.704;9.210;2024-02-21T13:19:06;14.00;1.00
530;DHT22;251;48.704;9.210;2024-02-21T13:21:33;14.00;1.00
530;DHT22;251;48.704;9.210;2024-02-21T13:24:00;14.10;1.00
530;DHT22;251;48.704;9.210;2024-02-21T13:26:28;14.00;1.00
530;DHT22;251;48.704;9.210;2024-02-21T13:28:55;14.10;1.00
530;DHT22;251;48.704;9.210;2024-02-21T13:31:22;14.10;1.00
530;DHT22;251;48.704;9.210;2024-02-21T13:33:50;14.10;1.00
530;DHT22;251;48.704;9.210;2024-02-21T13:36:17;14.10;1.00
530;DHT22;251;48.704;9.210;2024-02-21T13:38:44;14.00;1.00
530;DHT22;251;48.704;9.210;2024-02-21T13:41:11;14.00;1.00
530;DHT22;251;48.704;9.210;2024-02-21T13:43:39;13.90;1.00
530;DHT22;251;48.704;9.210;2024-02-21T13:46:06;13.90;1.00
530;DHT22;251;48.704;9.210;2024-02-21T13:48:35;13.90;1.00
530;DHT22;251;48.704;9.210;2024-02-21T13:51:02;13.80;1.00
530;DHT22;251;48.704;9.210;2024-02-21T13:53:29;13.80;1.00
530;DHT22;251;48.704;9.210;2024-02-21T13:55:55;13.80;1.00
530;DHT22;251;48.704;9.210;2024-02-21T13:58:22;13.80;1.00
530;DHT22;251;48.704;9.210;2024-02-21T14:00:52;13.70;1.00
530;DHT22;251;48.704;9.210;2024-02-21T14:03:19;13.80;1.00
530;DHT22;251;48.704;9.210;2024-02-21T14:05:46;13.80;1.00
530;DHT22;251;48.704;9.210;2024-02-21T14:08:14;13.80;1.00
530;DHT22;251;48.704;9.210;2024-02-21T14:10:41;13.80;1.00
530;DHT22;251;48.704;9.210;2024-02-21T14:13:07;13.70;1.00
530;DHT22;251;48.704;9.210;2024-02-21T14:15:34;13.70;1.00
530;DHT22;251;48.704;9.210;2024-02-21T14:18:04;13.60;1.00
530;DHT22;251;48.704;9.210;2024-02-21T14:20:34;13.60;1.00
530;DHT22;251;48.704;9.210;2024-02-21T14:23:00;13.60;1.00
530;DHT22;251;48.704;9.210;2024-02-21T14:25:27;13.50;1.00
530;DHT22;251;48.704;9.210;2024-02-21T14:27:54;13.40;1.00
530;DHT22;251;48.704;9.210;2024-02-21T14:30:21;13.40;1.00
530;DHT22;251;48.704;9.210;2024-02-21T14:32:48;13.40;1.00
530;DHT22;251;48.704;9.210;2024-02-21T14:35:16;13.30;1.00
530;DHT22;251;48.704;9.210;2024-02-21T14:37:43;13.30;1.00
530;DHT22;251;48.704;9.210;2024-02-21T14:40:11;13.30;1.00
530;DHT22;251;48.704;9.210;2024-02-21T14:42:38;13.30;1.00
530;DHT22;251;48.704;9.210;2024-02-21T14:45:06;13.40;1.00
530;DHT22;251;48.704;9.210;2024-02-21T14:47:33;13.50;1.00
530;DHT22;251;48.704;9.210;2024-02-21T14:50:03;13.50;1.00
530;DHT22;251;48.704;9.210;2024-02-21T14:52:31;13.40;1.00
530;DHT22;251;48.704;9.210;2024-02-21T14:54:59;13.40;1.00
530;DHT22;251;48.704;9.210;2024-02-21T14:57:28;13.40;1.00
530;DHT22;251;48.704;9.210;2024-02-21T14:59:55;13.30;1.00
530;DHT22;251;48.704;9.210;2024-02-21T15:02:24;13.20;1.00
530;DHT22;251;48.704;9.210;2024-02-21T15:04:53;13.20;1.00
530;DHT22;251;48.704;9.210;2024-02-21T15:07:20;13.10;1.00
530;DHT22;251;48.704;9.210;2024-02-21T15:09:51;13.00;1.00
530;DHT22;251;48.704;9.210;2024-02-21T15:12:17;12.90;1.00
530;DHT22;251;48.704;9.210;2024-02-21T15:14:44;12.90;1.50
530;DHT22;251;48.704;9.210;2024-02-21T15:17:11;12.80;1.00
530;DHT22;251;48.704;9.210;2024-02-21T15:19:38;12.70;1.90
530;DHT22;251;48.704;9.210;2024-02-21T15:22:09;12.60;1.40
530;DHT22;251;48.704;9.210;2024-02-21T15:24:37;12.60;2.10
530;DHT22;251;48.704;9.210;2024-02-21T15:27:05;12.60;2.40
530;DHT22;251;48.704;9.210;2024-02-21T15:29:33;12.50;2.40
530;DHT22;251;48.704;9.210;2024-02-21T15:31:59;12.50;2.40
530;DHT22;251;48.704;9.210;2024-02-21T15:34:26;12.50;4.00
530;DHT22;251;48.704;9.210;2024-02-21T15:36:53;12.50;3.90
530;DHT22;251;48.704;9.210;2024-02-21T15:39:19;12.50;4.10
530;DHT22;251;48.704;9.210;2024-02-21T15:41:46;12.50;4.20
530;DHT22;251;48.704;9.210;2024-02-21T15:44:14;12.50;4.80
530;DHT22;251;48.704;9.210;2024-02-21T15:46:41;12.50;4.00
530;DHT22;251;48.704;9.210;2024-02-21T15:49:08;12.50;4.40
530;DHT22;251;48.704;9.210;2024-02-21T15:51:34;12.50;4.60
530;DHT22;251;48.704;9.210;2024-02-21T15:54:03;12.40;5.80
530;DHT22;251;48.704;9.210;2024-02-21T15:56:30;12.30;4.80
530;DHT22;251;48.704;9.210;2024-02-21T15:58:57;12.30;4.90
530;DHT22;251;48.704;9.210;2024-02-21T16:01:25;12.20;5.60
530;DHT22;251;48.704;9.210;2024-02-21T16:03:53;12.10;4.60
530;DHT22;251;48.704;9.210;2024-02-21T16:06:21;12.10;5.60
530;DHT22;251;48.704;9.210;2024-02-21T16:08:48;12.00;6.00
530;DHT22;251;48.704;9.210;2024-02-21T16:11:16;12.00;6.70
530;DHT22;251;48.704;9.210;2024-02-21T16:13:43;11.90;7.50
530;DHT22;251;48.704;9.210;2024-02-21T16:16:11;11.80;7.50
530;DHT22;251;48.704;9.210;2024-02-21T16:18:40;11.80;8.70
530;DHT22;251;48.704;9.210;2024-02-21T16:21:06;11.70;8.60
530;DHT22;251;48.704;9.210;2024-02-21T16:23:34;11.60;10.10
530;DHT22;251;48.704;9.210;2024-02-21T16:26:00;11.60;8.80
530;DHT22;251;48.704;9.210;2024-02-21T16:28:27;11.50;9.30
530;DHT22;251;48.704;9.210;2024-02-21T16:30:54;11.40;10.00
530;DHT22;251;48.704;9.210;2024-02-21T16:33:22;11.40;9.90
530;DHT22;251;48.704;9.210;2024-02-21T16:35:51;11.30;10.00
530;DHT22;251;48.704;9.210;2024-02-21T16:38:18;11.20;11.40
530;DHT22;251;48.704;9.210;2024-02-21T16:40:44;11.10;10.90
530;DHT22;251;48.704;9.210;2024-02-21T16:43:11;11.00;11.50
530;DHT22;251;48.704;9.210;2024-02-21T16:45:38;10.90;12.80
530;DHT22;251;48.704;9.210;2024-02-21T16:48:05;10.80;13.00
530;DHT22;251;48.704;9.210;2024-02-21T16:50:32;10.70;13.60
530;DHT22;251;48.704;9.210;2024-02-21T16:53:00;10.70;13.60